createdAt,value
2018-08-23T00:01:47.422Z,98.90
2018-08-23T00:04:57.317Z,98.80
2018-08-23T00:08:09.893Z,98.80
2018-08-23T00:11:25.230Z,98.80
2018-08-23T00:14:35.361Z,99.10
2018-08-23T00:17:46.477Z,99.20
2018-08-23T00:20:57.342Z,99.50
2018-08-23T00:24:10.832Z,99.50
2018-08-23T00:27:26.547Z,99.90
2018-08-23T00:30:37.497Z,99.80
2018-08-23T00:33:47.887Z,99.70
2018-08-23T00:36:58.964Z,99.90
2018-08-23T00:40:14.887Z,99.90
2018-08-23T00:43:25.090Z,99.80
2018-08-23T00:46:36.472Z,99.90
2018-08-23T00:49:53.993Z,99.90
2018-08-23T00:53:04.431Z,99.90
2018-08-23T00:56:20.928Z,99.90
2018-08-23T00:59:31.186Z,99.90
2018-08-23T01:02:42.012Z,99.90
2018-08-23T01:05:51.851Z,99.90
2018-08-23T01:09:02.338Z,99.90
2018-08-23T01:12:13.009Z,99.90
2018-08-23T01:15:23.110Z,99.90
2018-08-23T01:18:33.522Z,99.90
2018-08-23T01:21:47.324Z,99.90
2018-08-23T01:25:00.179Z,99.90
2018-08-23T01:28:10.756Z,99.90
2018-08-23T01:31:28.361Z,99.90
2018-08-23T01:34:38.156Z,99.90
2018-08-23T01:37:48.347Z,99.90
2018-08-23T01:41:03.794Z,99.90
2018-08-23T01:44:14.282Z,99.90
2018-08-23T01:47:24.264Z,99.90
2018-08-23T01:50:34.136Z,99.90
2018-08-23T01:53:44.018Z,99.90
2018-08-23T01:56:54.178Z,99.90
2018-08-23T02:00:05.152Z,99.90
2018-08-23T02:03:15.241Z,99.90
2018-08-23T02:06:30.899Z,99.90
2018-08-23T02:09:41.687Z,99.90
2018-08-23T02:12:53.345Z,99.90
2018-08-23T02:16:04.472Z,99.90
2018-08-23T02:19:14.374Z,99.90
2018-08-23T02:22:24.535Z,99.90
2018-08-23T02:25:34.493Z,99.90
2018-08-23T02:28:46.891Z,99.90
2018-08-23T02:31:57.577Z,99.90
2018-08-23T02:35:07.771Z,99.90
2018-08-23T02:38:18.293Z,99.90
2018-08-23T02:41:29.325Z,99.90
2018-08-23T02:44:39.459Z,99.90
2018-08-23T02:47:50.247Z,99.90
2018-08-23T02:51:00.807Z,99.90
2018-08-23T02:54:13.060Z,99.90
2018-08-23T02:57:23.606Z,99.90
2018-08-23T03:00:38.926Z,99.90
2018-08-23T03:04:01.920Z,99.90
2018-08-23T03:07:12.837Z,99.90
2018-08-23T03:10:23.862Z,99.90
2018-08-23T03:13:37.193Z,99.90
2018-08-23T03:17:23.738Z,99.90
2018-08-23T03:20:34.081Z,99.90
2018-08-23T03:23:46.121Z,99.90
2018-08-23T03:26:56.656Z,99.90
2018-08-23T03:30:08.166Z,99.90
2018-08-23T03:33:18.258Z,99.90
2018-08-23T03:36:28.233Z,99.90
2018-08-23T03:39:38.394Z,99.90
2018-08-23T03:42:49.446Z,99.90
2018-08-23T03:46:00.763Z,99.90
2018-08-23T03:49:11.531Z,99.90
2018-08-23T03:52:23.935Z,99.90
2018-08-23T03:55:34.659Z,99.90
2018-08-23T03:58:44.862Z,99.90
2018-08-23T04:01:55.513Z,99.90
2018-08-23T04:05:13.494Z,99.90
2018-08-23T04:08:24.336Z,99.90
2018-08-23T04:11:34.600Z,99.90
2018-08-23T04:14:44.973Z,99.90
2018-08-23T04:17:55.168Z,99.90
2018-08-23T04:21:05.022Z,99.90
2018-08-23T04:24:15.746Z,99.90
2018-08-23T04:27:26.108Z,99.90
2018-08-23T04:30:36.366Z,99.90
2018-08-23T04:33:46.511Z,99.90
2018-08-23T04:36:57.081Z,99.90
2018-08-23T04:40:07.739Z,99.90
2018-08-23T04:43:17.990Z,99.90
2018-08-23T04:46:31.858Z,99.90
2018-08-23T04:49:42.042Z,99.90
2018-08-23T04:52:52.050Z,99.90
2018-08-23T04:56:02.123Z,99.90
2018-08-23T04:59:12.281Z,99.90
2018-08-23T05:02:22.231Z,99.90
2018-08-23T05:05:32.086Z,99.90
2018-08-23T05:08:42.801Z,99.90
2018-08-23T05:11:53.817Z,99.90
2018-08-23T05:15:04.498Z,99.90
2018-08-23T05:18:15.188Z,99.90
2018-08-23T05:21:25.949Z,99.90
2018-08-23T05:24:36.034Z,99.90
2018-08-23T05:28:03.194Z,99.90
2018-08-23T05:31:13.288Z,99.90
2018-08-23T05:34:24.145Z,99.90
2018-08-23T05:37:34.339Z,99.90
2018-08-23T05:40:49.002Z,99.90
2018-08-23T05:44:07.771Z,99.90
2018-08-23T05:47:18.659Z,99.90
2018-08-23T05:50:33.624Z,99.90
2018-08-23T05:53:49.416Z,99.90
2018-08-23T05:57:00.171Z,99.90
2018-08-23T06:00:10.490Z,99.90
2018-08-23T06:03:21.050Z,99.90
2018-08-23T06:06:31.139Z,99.90
2018-08-23T06:09:42.329Z,99.90
2018-08-23T06:12:53.264Z,99.90
2018-08-23T06:16:03.662Z,99.90
2018-08-23T06:19:15.441Z,99.90
2018-08-23T06:22:25.556Z,99.70
2018-08-23T06:25:36.366Z,99.80
2018-08-23T06:28:46.062Z,99.20
2018-08-23T06:32:10.639Z,99.30
2018-08-23T06:35:20.247Z,99.20
2018-08-23T06:38:31.145Z,98.60
2018-08-23T06:41:41.469Z,98.60
2018-08-23T06:44:53.324Z,97.60
2018-08-23T06:48:03.642Z,97.70
2018-08-23T06:51:14.242Z,97.40
2018-08-23T06:54:24.155Z,97.10
2018-08-23T06:57:41.232Z,96.70
2018-08-23T07:00:51.468Z,96.60
2018-08-23T07:04:05.002Z,96.50
2018-08-23T07:07:20.101Z,96.20
2018-08-23T07:10:30.479Z,95.50
2018-08-23T07:13:40.493Z,95.30
2018-08-23T07:16:50.803Z,95.00
2018-08-23T07:20:04.018Z,94.90
2018-08-23T07:23:25.808Z,94.40
2018-08-23T07:26:35.823Z,94.10
2018-08-23T07:29:50.316Z,93.70
2018-08-23T07:33:00.913Z,93.30
2018-08-23T07:36:30.825Z,93.40
2018-08-23T07:39:45.111Z,92.60
2018-08-23T07:42:55.515Z,92.10
2018-08-23T07:46:05.625Z,92.30
2018-08-23T07:49:15.819Z,92.10
2018-08-23T07:52:27.185Z,91.00
2018-08-23T07:55:37.756Z,90.60
2018-08-23T07:58:49.509Z,88.30
2018-08-23T08:01:59.856Z,89.00
2018-08-23T08:05:10.006Z,85.60
2018-08-23T08:08:19.988Z,82.70
2018-08-23T08:11:39.629Z,82.40
2018-08-23T08:14:50.115Z,81.00
2018-08-23T08:18:07.862Z,80.50
2018-08-23T08:21:18.564Z,79.10
2018-08-23T08:24:29.133Z,75.50
2018-08-23T08:27:39.802Z,75.20
2018-08-23T08:30:56.119Z,76.40
2018-08-23T08:34:06.967Z,73.50
2018-08-23T08:37:17.282Z,71.90
2018-08-23T08:40:27.210Z,72.30
2018-08-23T08:43:36.864Z,69.90
2018-08-23T08:46:46.846Z,70.40
2018-08-23T08:49:56.834Z,69.40
2018-08-23T08:53:06.993Z,69.30
2018-08-23T08:56:21.747Z,65.80
2018-08-23T08:59:33.019Z,66.90
2018-08-23T09:02:43.170Z,65.70
2018-08-23T09:05:53.369Z,66.60
2018-08-23T09:09:41.668Z,64.80
2018-08-23T09:12:51.844Z,61.90
2018-08-23T09:16:06.709Z,63.40
2018-08-23T09:19:17.249Z,60.50
2018-08-23T09:22:27.180Z,61.20
2018-08-23T09:25:43.367Z,60.60
2018-08-23T09:28:53.008Z,59.40
2018-08-23T09:32:12.566Z,60.50
2018-08-23T09:35:27.356Z,58.60
2018-08-23T09:38:38.002Z,59.10
2018-08-23T09:41:48.317Z,57.50
2018-08-23T09:45:04.814Z,57.00
2018-08-23T09:48:15.165Z,58.30
2018-08-23T09:51:30.176Z,58.20
2018-08-23T09:54:40.079Z,57.20
2018-08-23T09:57:50.263Z,56.80
2018-08-23T10:01:05.686Z,56.50
2018-08-23T10:04:21.061Z,56.60
2018-08-23T10:07:36.690Z,56.00
2018-08-23T10:10:52.327Z,55.30
2018-08-23T10:14:08.032Z,54.20
2018-08-23T10:17:23.374Z,54.80
2018-08-23T10:20:44.723Z,53.70
2018-08-23T10:24:04.665Z,54.10
2018-08-23T10:27:14.608Z,54.60
2018-08-23T10:30:24.611Z,52.50
2018-08-23T10:33:34.852Z,52.50
2018-08-23T10:36:44.642Z,53.30
2018-08-23T10:39:55.108Z,52.00
2018-08-23T10:43:05.702Z,50.60
2018-08-23T10:46:15.344Z,50.70
2018-08-23T10:49:26.320Z,51.00
2018-08-23T10:52:36.348Z,49.90
2018-08-23T10:55:46.754Z,49.50
2018-08-23T10:58:57.273Z,50.10
2018-08-23T11:02:07.143Z,48.60
2018-08-23T11:05:17.023Z,48.30
2018-08-23T11:08:31.714Z,48.50
2018-08-23T11:11:41.812Z,48.20
2018-08-23T11:14:51.657Z,49.00
2018-08-23T11:18:07.271Z,48.60
2018-08-23T11:21:18.010Z,45.70
2018-08-23T11:24:28.213Z,46.90
2018-08-23T11:27:38.416Z,46.20
2018-08-23T11:30:48.092Z,46.70
2018-08-23T11:33:58.323Z,46.60
2018-08-23T11:37:09.021Z,45.90
2018-08-23T11:40:18.654Z,45.30
2018-08-23T11:43:28.610Z,45.70
2018-08-23T11:46:38.646Z,46.70
2018-08-23T11:49:48.770Z,45.50
2018-08-23T11:52:58.861Z,46.10
2018-08-23T11:56:08.813Z,46.00
2018-08-23T11:59:18.709Z,46.80
2018-08-23T12:02:29.563Z,44.60
2018-08-23T12:05:39.824Z,46.30
2018-08-23T12:08:49.782Z,46.70
2018-08-23T12:12:00.555Z,47.80
2018-08-23T12:15:10.911Z,47.90
2018-08-23T12:18:21.262Z,48.10
2018-08-23T12:21:31.080Z,48.30
2018-08-23T12:24:40.852Z,47.90
2018-08-23T12:27:59.439Z,48.00
2018-08-23T12:31:09.460Z,47.80
2018-08-23T12:34:30.192Z,48.00
2018-08-23T12:37:45.716Z,48.70
2018-08-23T12:41:01.708Z,48.20
2018-08-23T12:44:12.248Z,48.50
2018-08-23T12:47:22.729Z,48.40
2018-08-23T12:50:32.848Z,48.10
2018-08-23T12:53:42.987Z,47.80
2018-08-23T12:56:53.120Z,46.60
2018-08-23T13:00:02.817Z,47.90
2018-08-23T13:03:12.948Z,48.60
2018-08-23T13:06:22.924Z,47.00
2018-08-23T13:09:32.570Z,48.20
2018-08-23T13:12:42.383Z,48.30
2018-08-23T13:15:52.141Z,48.60
2018-08-23T13:19:02.675Z,48.40
2018-08-23T13:22:17.470Z,48.20
2018-08-23T13:25:27.914Z,48.50
2018-08-23T13:28:37.712Z,47.20
2018-08-23T13:31:47.398Z,46.70
2018-08-23T13:34:57.628Z,46.50
2018-08-23T13:38:07.915Z,47.20
2018-08-23T13:41:17.718Z,46.30
2018-08-23T13:44:27.644Z,46.30
2018-08-23T13:47:37.458Z,46.30
2018-08-23T13:50:47.494Z,45.80
2018-08-23T13:53:57.631Z,47.20
2018-08-23T13:57:07.454Z,47.90
2018-08-23T14:00:22.739Z,48.70
2018-08-23T14:03:33.266Z,49.60
2018-08-23T14:06:43.309Z,50.80
2018-08-23T14:09:53.198Z,53.30
2018-08-23T14:13:03.011Z,54.00
2018-08-23T14:16:12.685Z,55.60
2018-08-23T14:19:23.064Z,56.70
2018-08-23T14:22:33.291Z,57.30
2018-08-23T14:25:42.884Z,57.70
2018-08-23T14:28:52.986Z,58.50
2018-08-23T14:32:02.943Z,58.30
2018-08-23T14:35:12.619Z,58.60
2018-08-23T14:38:22.468Z,59.10
2018-08-23T14:41:33.107Z,59.20
2018-08-23T14:44:43.034Z,59.50
2018-08-23T14:47:58.442Z,59.70
2018-08-23T14:51:08.277Z,60.40
2018-08-23T14:54:23.833Z,63.20
2018-08-23T14:57:34.887Z,66.30
2018-08-23T15:00:44.661Z,67.90
2018-08-23T15:03:54.368Z,68.90
2018-08-23T15:07:04.209Z,70.70
2018-08-23T15:10:14.748Z,71.20
2018-08-23T15:13:24.554Z,71.40
2018-08-23T15:16:35.002Z,72.50
2018-08-23T15:19:45.523Z,73.80
2018-08-23T15:22:55.353Z,74.20
2018-08-23T15:26:05.033Z,74.80
2018-08-23T15:29:15.102Z,75.40
2018-08-23T15:32:25.586Z,75.50
2018-08-23T15:35:35.661Z,75.50
2018-08-23T15:38:45.612Z,75.60
2018-08-23T15:41:55.395Z,74.90
2018-08-23T15:45:05.154Z,75.30
2018-08-23T15:48:15.155Z,75.50
2018-08-23T15:51:25.433Z,75.70
2018-08-23T15:54:35.586Z,76.70
2018-08-23T15:57:45.643Z,77.00
2018-08-23T16:00:56.232Z,77.50
2018-08-23T16:04:05.960Z,77.50
2018-08-23T16:07:16.031Z,77.20
2018-08-23T16:10:26.018Z,77.40
2018-08-23T16:13:35.948Z,77.60
2018-08-23T16:16:51.350Z,77.10
2018-08-23T16:20:07.591Z,77.40
2018-08-23T16:23:17.508Z,76.70
2018-08-23T16:26:33.042Z,77.20
2018-08-23T16:29:47.107Z,77.30
2018-08-23T16:32:56.786Z,76.60
2018-08-23T16:36:06.999Z,76.70
2018-08-23T16:39:17.654Z,76.80
2018-08-23T16:42:27.311Z,77.00
2018-08-23T16:45:37.100Z,77.20
2018-08-23T16:48:47.155Z,77.70
2018-08-23T16:51:57.181Z,77.90
2018-08-23T16:55:07.175Z,77.90
2018-08-23T16:58:17.571Z,77.80
2018-08-23T17:01:27.470Z,77.80
2018-08-23T17:04:44.477Z,78.30
2018-08-23T17:07:54.527Z,78.30
2018-08-23T17:11:04.986Z,78.80
2018-08-23T17:14:15.291Z,78.40
2018-08-23T17:17:30.807Z,78.40
2018-08-23T17:20:41.219Z,79.30
2018-08-23T17:23:51.007Z,79.50
2018-08-23T17:27:01.128Z,79.60
2018-08-23T17:30:11.089Z,80.10
2018-08-23T17:33:20.926Z,79.80
2018-08-23T17:36:31.488Z,80.50
2018-08-23T17:39:41.376Z,80.30
2018-08-23T17:42:51.623Z,80.90
2018-08-23T17:46:01.640Z,81.10
2018-08-23T17:49:11.757Z,81.50
2018-08-23T17:52:22.430Z,81.80
2018-08-23T17:55:32.712Z,82.50
2018-08-23T17:58:42.963Z,82.40
2018-08-23T18:01:53.115Z,83.00
2018-08-23T18:05:02.880Z,82.70
2018-08-23T18:08:12.767Z,83.30
2018-08-23T18:11:22.639Z,83.70
2018-08-23T18:14:32.434Z,83.90
2018-08-23T18:17:42.472Z,84.00
2018-08-23T18:20:52.536Z,84.30
2018-08-23T18:24:05.024Z,84.30
2018-08-23T18:27:14.909Z,85.10
2018-08-23T18:30:25.468Z,85.40
2018-08-23T18:33:35.982Z,85.50
2018-08-23T18:36:45.743Z,86.00
2018-08-23T18:39:55.900Z,86.20
2018-08-23T18:43:06.008Z,86.70
2018-08-23T18:46:15.745Z,86.80
2018-08-23T18:49:25.855Z,87.00
2018-08-23T18:52:35.526Z,87.60
2018-08-23T18:55:45.368Z,88.00
2018-08-23T18:58:56.382Z,88.30
2018-08-23T19:02:06.440Z,88.10
2018-08-23T19:05:17.069Z,88.70
2018-08-23T19:08:27.398Z,89.20
2018-08-23T19:11:37.671Z,89.20
2018-08-23T19:14:47.340Z,89.60
2018-08-23T19:17:57.303Z,89.00
2018-08-23T19:21:07.695Z,89.30
2018-08-23T19:24:18.442Z,89.50
2018-08-23T19:27:28.729Z,90.10
2018-08-23T19:30:39.367Z,90.20
2018-08-23T19:33:49.690Z,90.40
2018-08-23T19:36:59.708Z,90.40
2018-08-23T19:40:09.631Z,90.40
2018-08-23T19:43:20.798Z,90.50
2018-08-23T19:47:34.229Z,90.50
2018-08-23T19:50:43.939Z,90.60
2018-08-23T19:53:54.007Z,91.00
2018-08-23T19:57:04.192Z,91.00
2018-08-23T20:00:14.319Z,91.10
2018-08-23T20:03:24.324Z,91.20
2018-08-23T20:06:34.723Z,91.30
2018-08-23T20:09:45.157Z,91.30
2018-08-23T20:12:55.685Z,91.30
2018-08-23T20:16:05.860Z,91.40
2018-08-23T20:19:15.990Z,91.50
2018-08-23T20:22:27.790Z,91.70
2018-08-23T20:25:37.904Z,91.90
2018-08-23T20:28:49.574Z,92.00
2018-08-23T20:32:00.090Z,92.10
2018-08-23T20:35:10.044Z,92.20
2018-08-23T20:38:19.672Z,92.50
2018-08-23T20:41:29.506Z,92.40
2018-08-23T20:44:39.376Z,92.40
2018-08-23T20:47:49.406Z,92.60
2018-08-23T20:51:00.211Z,92.70
2018-08-23T20:54:10.160Z,92.70
2018-08-23T20:57:19.881Z,92.80
2018-08-23T21:00:29.837Z,92.80
2018-08-23T21:03:39.814Z,93.10
2018-08-23T21:06:49.892Z,93.20
2018-08-23T21:09:59.744Z,93.40
2018-08-23T21:13:10.008Z,93.60
2018-08-23T21:16:20.488Z,93.70
2018-08-23T21:19:30.352Z,93.80
2018-08-23T21:22:40.713Z,94.20
2018-08-23T21:25:50.745Z,94.50
2018-08-23T21:29:00.855Z,94.80
2018-08-23T21:32:10.559Z,94.90
2018-08-23T21:35:20.412Z,95.00
2018-08-23T21:38:30.274Z,95.00
2018-08-23T21:41:40.262Z,94.80
2018-08-23T21:44:50.194Z,94.90
2018-08-23T21:48:00.323Z,94.90
2018-08-23T21:51:10.348Z,94.80
2018-08-23T21:54:20.396Z,95.00
2018-08-23T21:57:30.424Z,95.00
2018-08-23T22:00:45.784Z,94.90
2018-08-23T22:03:56.261Z,95.20
2018-08-23T22:07:06.142Z,95.20
2018-08-23T22:10:15.994Z,95.40
2018-08-23T22:13:25.822Z,95.60
2018-08-23T22:16:36.123Z,95.70
2018-08-23T22:19:46.262Z,95.70
2018-08-23T22:22:57.054Z,95.60
2018-08-23T22:26:06.626Z,95.90
2018-08-23T22:29:17.246Z,96.30
2018-08-23T22:32:27.010Z,96.30
2018-08-23T22:35:36.792Z,96.60
2018-08-23T22:38:47.133Z,96.90
2018-08-23T22:41:57.060Z,96.90
2018-08-23T22:45:06.966Z,97.30
2018-08-23T22:48:16.830Z,97.10
2018-08-23T22:51:26.587Z,97.60
2018-08-23T22:54:36.501Z,97.90
2018-08-23T22:57:46.692Z,98.00
2018-08-23T23:00:56.412Z,98.20
2018-08-23T23:04:11.380Z,98.20
2018-08-23T23:07:21.823Z,98.30
2018-08-23T23:10:31.694Z,98.30
2018-08-23T23:13:41.561Z,98.00
2018-08-23T23:16:55.493Z,98.10
2018-08-23T23:20:06.074Z,98.50
2018-08-23T23:23:16.526Z,98.30
2018-08-23T23:26:26.909Z,98.40
2018-08-23T23:29:39.181Z,98.50
2018-08-23T23:32:50.699Z,98.40
2018-08-23T23:36:01.592Z,98.50
2018-08-23T23:39:12.063Z,98.70
2018-08-23T23:42:22.499Z,98.80
2018-08-23T23:45:32.943Z,98.90
2018-08-23T23:48:43.160Z,99.00
2018-08-23T23:51:53.157Z,98.90
2018-08-23T23:55:03.788Z,98.90
2018-08-23T23:58:14.215Z,98.80
